KGCN

Grand Canyon National Park Airport

Grand Canyon, Arizona, USA
METAR KGCN 190854Z AUTO 00000KT 10SM CLR 08/02 A3012 RMK AO2 SLP103 T00780017 58004
Observed Flight Rules
Sep-19 @ 08:54 UTC (11 minutes ago) Visual Flight Rules
Visibility Clouds
10 miles
  • Clear skies
Temperatures Readings
Current 8°C / 46°F
Dewpoint 2°C / 36°F
Humidity 66%
Altimeter 30.12" Hg
Pressure 1010.3 hPa
Elevation 2016
METAR KGCN 190854Z AUTO 00000KT 10SM CLR 08/02 A3012 RMK AO2 SLP103 T00780017 58004
Observed Flight Rules
Sep-19 @ 08:54 UTC
(11 minutes ago)
VFR
Clouds
  • Clear skies
Temperature Dewpoint
8°C / 46°F 2°C / 36°F
Humidity Altimeter Pressure
66% 30.12" Hg 1010.3 hPa